sensor_id;sensor_type;location;lat;lon;timestamp;temperature;humidity
23445;DHT22;11895;48.738;9.320;2023-06-19T00:00:22;24.70;74.50
23445;DHT22;11895;48.738;9.320;2023-06-19T00:02:50;24.60;73.70
23445;DHT22;11895;48.738;9.320;2023-06-19T00:05:18;24.00;74.30
23445;DHT22;11895;48.738;9.320;2023-06-19T00:07:46;24.60;74.40
23445;DHT22;11895;48.738;9.320;2023-06-19T00:10:13;24.50;75.10
23445;DHT22;11895;48.738;9.320;2023-06-19T00:12:42;24.40;74.40
23445;DHT22;11895;48.738;9.320;2023-06-19T00:15:10;24.50;76.20
23445;DHT22;11895;48.738;9.320;2023-06-19T00:17:38;24.60;75.80
23445;DHT22;11895;48.738;9.320;2023-06-19T00:20:26;24.20;75.30
23445;DHT22;11895;48.738;9.320;2023-06-19T00:22:53;24.40;76.40
23445;DHT22;11895;48.738;9.320;2023-06-19T00:25:20;24.50;76.00
23445;DHT22;11895;48.738;9.320;2023-06-19T00:27:48;24.50;76.60
23445;DHT22;11895;48.738;9.320;2023-06-19T00:30:15;24.30;76.20
23445;DHT22;11895;48.738;9.320;2023-06-19T00:32:42;24.50;76.40
23445;DHT22;11895;48.738;9.320;2023-06-19T00:35:14;24.60;76.60
23445;DHT22;11895;48.738;9.320;2023-06-19T00:37:42;24.50;76.50
23445;DHT22;11895;48.738;9.320;2023-06-19T00:40:30;24.50;76.60
23445;DHT22;11895;48.738;9.320;2023-06-19T00:42:59;24.60;76.70
23445;DHT22;11895;48.738;9.320;2023-06-19T00:45:27;24.60;76.90
23445;DHT22;11895;48.738;9.320;2023-06-19T00:47:56;24.80;77.60
23445;DHT22;11895;48.738;9.320;2023-06-19T00:50:31;25.10;77.50
23445;DHT22;11895;48.738;9.320;2023-06-19T00:52:59;24.40;77.40
23445;DHT22;11895;48.738;9.320;2023-06-19T00:55:31;24.30;77.50
23445;DHT22;11895;48.738;9.320;2023-06-19T00:58:02;24.20;78.60
23445;DHT22;11895;48.738;9.320;2023-06-19T01:00:30;24.10;78.60
23445;DHT22;11895;48.738;9.320;2023-06-19T01:02:58;24.00;79.00
23445;DHT22;11895;48.738;9.320;2023-06-19T01:05:28;24.20;79.20
23445;DHT22;11895;48.738;9.320;2023-06-19T01:10:59;24.20;78.00
23445;DHT22;11895;48.738;9.320;2023-06-19T01:13:55;24.20;78.90
23445;DHT22;11895;48.738;9.320;2023-06-19T01:16:29;24.20;77.80
23445;DHT22;11895;48.738;9.320;2023-06-19T01:18:57;24.10;79.10
23445;DHT22;11895;48.738;9.320;2023-06-19T01:21:25;24.10;79.50
23445;DHT22;11895;48.738;9.320;2023-06-19T01:23:55;24.10;79.30
23445;DHT22;11895;48.738;9.320;2023-06-19T01:26:23;24.10;79.20
23445;DHT22;11895;48.738;9.320;2023-06-19T01:28:56;24.20;77.80
23445;DHT22;11895;48.738;9.320;2023-06-19T01:31:29;24.20;79.60
23445;DHT22;11895;48.738;9.320;2023-06-19T01:34:01;24.30;79.40
23445;DHT22;11895;48.738;9.320;2023-06-19T01:36:34;24.30;79.20
23445;DHT22;11895;48.738;9.320;2023-06-19T01:39:02;24.10;78.40
23445;DHT22;11895;48.738;9.320;2023-06-19T01:41:32;24.00;78.50
23445;DHT22;11895;48.738;9.320;2023-06-19T01:44:00;24.00;79.30
23445;DHT22;11895;48.738;9.320;2023-06-19T01:46:27;23.80;77.40
23445;DHT22;11895;48.738;9.320;2023-06-19T01:48:55;23.90;79.60
23445;DHT22;11895;48.738;9.320;2023-06-19T01:51:23;24.10;78.10
23445;DHT22;11895;48.738;9.320;2023-06-19T01:53:50;23.90;78.30
23445;DHT22;11895;48.738;9.320;2023-06-19T01:56:18;23.90;74.60
23445;DHT22;11895;48.738;9.320;2023-06-19T01:58:45;24.00;78.60
23445;DHT22;11895;48.738;9.320;2023-06-19T02:01:12;23.90;76.40
23445;DHT22;11895;48.738;9.320;2023-06-19T02:03:40;24.10;76.60
23445;DHT22;11895;48.738;9.320;2023-06-19T02:06:09;23.80;78.10
23445;DHT22;11895;48.738;9.320;2023-06-19T02:08:36;24.10;80.00
23445;DHT22;11895;48.738;9.320;2023-06-19T02:11:03;24.00;81.10
23445;DHT22;11895;48.738;9.320;2023-06-19T02:13:32;23.80;78.80
23445;DHT22;11895;48.738;9.320;2023-06-19T02:15:59;23.60;81.50
23445;DHT22;11895;48.738;9.320;2023-06-19T02:18:27;24.20;82.60
23445;DHT22;11895;48.738;9.320;2023-06-19T02:20:54;24.00;80.00
23445;DHT22;11895;48.738;9.320;2023-06-19T02:23:22;23.90;78.60
23445;DHT22;11895;48.738;9.320;2023-06-19T02:25:49;23.70;72.00
23445;DHT22;11895;48.738;9.320;2023-06-19T02:28:17;23.80;78.20
23445;DHT22;11895;48.738;9.320;2023-06-19T02:30:44;24.20;86.80
23445;DHT22;11895;48.738;9.320;2023-06-19T02:33:11;24.20;88.70
23445;DHT22;11895;48.738;9.320;2023-06-19T02:35:40;24.10;85.70
23445;DHT22;11895;48.738;9.320;2023-06-19T02:38:08;24.10;85.50
23445;DHT22;11895;48.738;9.320;2023-06-19T02:40:35;24.10;79.70
23445;DHT22;11895;48.738;9.320;2023-06-19T02:43:02;23.80;80.40
23445;DHT22;11895;48.738;9.320;2023-06-19T02:45:29;24.10;87.90
23445;DHT22;11895;48.738;9.320;2023-06-19T02:47:57;24.00;89.50
23445;DHT22;11895;48.738;9.320;2023-06-19T02:50:25;24.10;88.60
23445;DHT22;11895;48.738;9.320;2023-06-19T02:52:53;24.30;89.30
23445;DHT22;11895;48.738;9.320;2023-06-19T02:55:20;23.90;88.40
23445;DHT22;11895;48.738;9.320;2023-06-19T02:57:47;24.00;85.70
23445;DHT22;11895;48.738;9.320;2023-06-19T03:00:15;23.90;87.30
23445;DHT22;11895;48.738;9.320;2023-06-19T03:02:42;23.80;86.80
23445;DHT22;11895;48.738;9.320;2023-06-19T03:05:12;24.20;86.80
23445;DHT22;11895;48.738;9.320;2023-06-19T03:07:41;23.60;85.80
23445;DHT22;11895;48.738;9.320;2023-06-19T03:10:09;23.30;86.20
23445;DHT22;11895;48.738;9.320;2023-06-19T03:12:36;23.60;85.50
23445;DHT22;11895;48.738;9.320;2023-06-19T03:15:04;23.60;86.90
23445;DHT22;11895;48.738;9.320;2023-06-19T03:17:37;23.70;86.50
23445;DHT22;11895;48.738;9.320;2023-06-19T03:20:20;23.20;85.90
23445;DHT22;11895;48.738;9.320;2023-06-19T03:22:53;23.20;88.70
23445;DHT22;11895;48.738;9.320;2023-06-19T03:25:23;23.30;91.20
23445;DHT22;11895;48.738;9.320;2023-06-19T03:27:50;22.90;91.90
23445;DHT22;11895;48.738;9.320;2023-06-19T03:30:18;22.50;93.50
23445;DHT22;11895;48.738;9.320;2023-06-19T03:32:49;22.50;92.40
23445;DHT22;11895;48.738;9.320;2023-06-19T03:35:37;22.70;92.40
23445;DHT22;11895;48.738;9.320;2023-06-19T03:38:05;22.90;91.40
23445;DHT22;11895;48.738;9.320;2023-06-19T03:40:34;22.90;91.20
23445;DHT22;11895;48.738;9.320;2023-06-19T03:43:07;22.70;90.40
23445;DHT22;11895;48.738;9.320;2023-06-19T03:45:35;22.90;90.10
23445;DHT22;11895;48.738;9.320;2023-06-19T03:48:05;23.20;89.40
23445;DHT22;11895;48.738;9.320;2023-06-19T03:50:33;23.00;89.10
23445;DHT22;11895;48.738;9.320;2023-06-19T03:53:01;22.90;88.30
23445;DHT22;11895;48.738;9.320;2023-06-19T03:55:28;23.70;88.20
23445;DHT22;11895;48.738;9.320;2023-06-19T03:57:56;23.30;90.40
23445;DHT22;11895;48.738;9.320;2023-06-19T04:00:23;23.40;92.80
23445;DHT22;11895;48.738;9.320;2023-06-19T04:02:51;23.00;92.90
23445;DHT22;11895;48.738;9.320;2023-06-19T04:05:19;22.80;94.60
23445;DHT22;11895;48.738;9.320;2023-06-19T04:07:49;23.00;95.60
23445;DHT22;11895;48.738;9.320;2023-06-19T04:10:16;22.90;94.70
23445;DHT22;11895;48.738;9.320;2023-06-19T04:12:47;22.70;93.30
23445;DHT22;11895;48.738;9.320;2023-06-19T04:15:14;22.90;93.00
23445;DHT22;11895;48.738;9.320;2023-06-19T04:17:42;22.90;93.10
23445;DHT22;11895;48.738;9.320;2023-06-19T04:20:10;23.30;93.60
23445;DHT22;11895;48.738;9.320;2023-06-19T04:22:39;23.10;95.10
23445;DHT22;11895;48.738;9.320;2023-06-19T04:25:08;23.40;95.10
23445;DHT22;11895;48.738;9.320;2023-06-19T04:27:38;23.30;98.70
23445;DHT22;11895;48.738;9.320;2023-06-19T04:30:06;23.50;97.80
23445;DHT22;11895;48.738;9.320;2023-06-19T04:32:34;23.70;96.30
23445;DHT22;11895;48.738;9.320;2023-06-19T04:35:02;23.30;95.70
23445;DHT22;11895;48.738;9.320;2023-06-19T04:37:30;22.90;95.40
23445;DHT22;11895;48.738;9.320;2023-06-19T04:39:58;23.20;95.70
23445;DHT22;11895;48.738;9.320;2023-06-19T04:42:26;23.30;96.20
23445;DHT22;11895;48.738;9.320;2023-06-19T04:44:54;23.20;95.90
23445;DHT22;11895;48.738;9.320;2023-06-19T04:47:23;22.80;96.40
23445;DHT22;11895;48.738;9.320;2023-06-19T04:50:02;23.20;96.40
23445;DHT22;11895;48.738;9.320;2023-06-19T04:52:30;23.10;93.60
23445;DHT22;11895;48.738;9.320;2023-06-19T04:55:00;23.00;93.60
23445;DHT22;11895;48.738;9.320;2023-06-19T04:57:27;23.60;94.80
23445;DHT22;11895;48.738;9.320;2023-06-19T04:59:54;23.10;94.70
23445;DHT22;11895;48.738;9.320;2023-06-19T05:04:50;23.70;96.10
23445;DHT22;11895;48.738;9.320;2023-06-19T05:07:18;23.90;99.90
23445;DHT22;11895;48.738;9.320;2023-06-19T05:14:41;24.70;96.50
23445;DHT22;11895;48.738;9.320;2023-06-19T05:17:09;23.90;93.50
23445;DHT22;11895;48.738;9.320;2023-06-19T05:19:36;23.90;94.10
23445;DHT22;11895;48.738;9.320;2023-06-19T05:22:04;24.10;94.00
23445;DHT22;11895;48.738;9.320;2023-06-19T05:24:34;24.10;93.00
23445;DHT22;11895;48.738;9.320;2023-06-19T05:27:02;24.00;93.10
23445;DHT22;11895;48.738;9.320;2023-06-19T05:29:30;24.10;93.40
23445;DHT22;11895;48.738;9.320;2023-06-19T05:31:59;24.30;93.10
23445;DHT22;11895;48.738;9.320;2023-06-19T05:34:27;24.00;92.50
23445;DHT22;11895;48.738;9.320;2023-06-19T05:36:55;24.60;92.10
23445;DHT22;11895;48.738;9.320;2023-06-19T05:39:23;24.40;89.00
23445;DHT22;11895;48.738;9.320;2023-06-19T05:41:50;24.70;91.80
23445;DHT22;11895;48.738;9.320;2023-06-19T05:44:18;24.90;90.10
23445;DHT22;11895;48.738;9.320;2023-06-19T05:46:46;25.10;88.80
23445;DHT22;11895;48.738;9.320;2023-06-19T05:49:14;24.90;88.30
23445;DHT22;11895;48.738;9.320;2023-06-19T05:51:42;24.70;88.60
23445;DHT22;11895;48.738;9.320;2023-06-19T05:54:10;24.50;88.80
23445;DHT22;11895;48.738;9.320;2023-06-19T05:56:37;24.60;89.50
23445;DHT22;11895;48.738;9.320;2023-06-19T05:59:04;25.00;88.40
23445;DHT22;11895;48.738;9.320;2023-06-19T06:01:32;25.10;88.20
23445;DHT22;11895;48.738;9.320;2023-06-19T06:03:59;24.90;90.90
23445;DHT22;11895;48.738;9.320;2023-06-19T06:06:28;25.10;88.20
23445;DHT22;11895;48.738;9.320;2023-06-19T06:08:55;25.30;88.70
23445;DHT22;11895;48.738;9.320;2023-06-19T06:11:23;25.60;88.80
23445;DHT22;11895;48.738;9.320;2023-06-19T06:13:50;24.90;89.80
23445;DHT22;11895;48.738;9.320;2023-06-19T06:16:18;25.10;90.30
23445;DHT22;11895;48.738;9.320;2023-06-19T06:18:46;24.50;90.70
23445;DHT22;11895;48.738;9.320;2023-06-19T06:21:13;24.50;91.10
23445;DHT22;11895;48.738;9.320;2023-06-19T06:23:41;24.70;91.20
23445;DHT22;11895;48.738;9.320;2023-06-19T06:26:08;24.80;90.60
23445;DHT22;11895;48.738;9.320;2023-06-19T06:28:36;25.00;90.50
23445;DHT22;11895;48.738;9.320;2023-06-19T06:31:05;24.70;90.50
23445;DHT22;11895;48.738;9.320;2023-06-19T06:33:33;24.60;90.60
23445;DHT22;11895;48.738;9.320;2023-06-19T06:36:03;24.90;91.40
23445;DHT22;11895;48.738;9.320;2023-06-19T06:38:35;24.70;91.00
23445;DHT22;11895;48.738;9.320;2023-06-19T06:41:03;24.90;90.50
23445;DHT22;11895;48.738;9.320;2023-06-19T06:43:30;24.70;89.90
23445;DHT22;11895;48.738;9.320;2023-06-19T06:45:58;25.20;89.10
23445;DHT22;11895;48.738;9.320;2023-06-19T06:48:26;25.50;89.70
23445;DHT22;11895;48.738;9.320;2023-06-19T06:50:53;25.40;87.10
23445;DHT22;11895;48.738;9.320;2023-06-19T06:53:29;25.40;87.00
23445;DHT22;11895;48.738;9.320;2023-06-19T06:55:59;25.50;86.70
23445;DHT22;11895;48.738;9.320;2023-06-19T06:58:27;25.80;86.50
23445;DHT22;11895;48.738;9.320;2023-06-19T07:00:55;26.00;86.30
23445;DHT22;11895;48.738;9.320;2023-06-19T07:03:23;26.10;85.50
23445;DHT22;11895;48.738;9.320;2023-06-19T07:05:50;26.40;85.00
23445;DHT22;11895;48.738;9.320;2023-06-19T07:08:18;26.50;84.60
23445;DHT22;11895;48.738;9.320;2023-06-19T07:10:46;26.40;85.00
23445;DHT22;11895;48.738;9.320;2023-06-19T07:13:13;26.50;84.80
23445;DHT22;11895;48.738;9.320;2023-06-19T07:15:41;26.60;84.80
23445;DHT22;11895;48.738;9.320;2023-06-19T07:18:13;26.70;84.60
23445;DHT22;11895;48.738;9.320;2023-06-19T07:20:51;26.70;84.20
23445;DHT22;11895;48.738;9.320;2023-06-19T07:23:21;26.80;84.10
23445;DHT22;11895;48.738;9.320;2023-06-19T07:25:49;26.90;83.80
23445;DHT22;11895;48.738;9.320;2023-06-19T07:28:16;26.80;84.00
23445;DHT22;11895;48.738;9.320;2023-06-19T07:30:43;26.80;83.00
23445;DHT22;11895;48.738;9.320;2023-06-19T07:33:11;26.60;82.80
23445;DHT22;11895;48.738;9.320;2023-06-19T07:35:39;26.50;82.90
23445;DHT22;11895;48.738;9.320;2023-06-19T07:38:06;26.60;83.20
23445;DHT22;11895;48.738;9.320;2023-06-19T07:40:33;26.60;83.50
23445;DHT22;11895;48.738;9.320;2023-06-19T07:43:01;26.70;83.60
23445;DHT22;11895;48.738;9.320;2023-06-19T07:45:29;26.70;83.40
23445;DHT22;11895;48.738;9.320;2023-06-19T07:47:57;26.70;83.10
23445;DHT22;11895;48.738;9.320;2023-06-19T07:50:25;27.00;82.50
23445;DHT22;11895;48.738;9.320;2023-06-19T07:52:54;27.30;81.00
23445;DHT22;11895;48.738;9.320;2023-06-19T07:55:22;27.40;80.50
23445;DHT22;11895;48.738;9.320;2023-06-19T07:57:49;27.50;80.50
23445;DHT22;11895;48.738;9.320;2023-06-19T08:00:17;27.50;80.40
23445;DHT22;11895;48.738;9.320;2023-06-19T08:02:44;27.60;80.60
23445;DHT22;11895;48.738;9.320;2023-06-19T08:05:12;27.70;80.10
23445;DHT22;11895;48.738;9.320;2023-06-19T08:07:40;27.80;79.80
23445;DHT22;11895;48.738;9.320;2023-06-19T08:10:08;27.70;79.60
23445;DHT22;11895;48.738;9.320;2023-06-19T08:12:53;27.50;79.30
23445;DHT22;11895;48.738;9.320;2023-06-19T08:15:21;27.50;80.00
23445;DHT22;11895;48.738;9.320;2023-06-19T08:17:48;27.50;79.60
23445;DHT22;11895;48.738;9.320;2023-06-19T08:20:16;27.50;79.70
23445;DHT22;11895;48.738;9.320;2023-06-19T08:22:43;27.50;79.30
23445;DHT22;11895;48.738;9.320;2023-06-19T08:25:11;27.60;79.20
23445;DHT22;11895;48.738;9.320;2023-06-19T08:27:38;27.60;79.20
23445;DHT22;11895;48.738;9.320;2023-06-19T08:30:06;27.60;79.40
23445;DHT22;11895;48.738;9.320;2023-06-19T08:32:34;27.70;79.20
23445;DHT22;11895;48.738;9.320;2023-06-19T08:35:02;27.70;79.00
23445;DHT22;11895;48.738;9.320;2023-06-19T08:37:30;27.80;78.60
23445;DHT22;11895;48.738;9.320;2023-06-19T08:39:57;27.80;78.80
23445;DHT22;11895;48.738;9.320;2023-06-19T08:42:27;27.90;78.50
23445;DHT22;11895;48.738;9.320;2023-06-19T08:44:54;28.00;77.50
23445;DHT22;11895;48.738;9.320;2023-06-19T08:47:29;28.20;77.70
23445;DHT22;11895;48.738;9.320;2023-06-19T08:49:59;28.40;76.80
23445;DHT22;11895;48.738;9.320;2023-06-19T08:52:29;28.40;76.40
23445;DHT22;11895;48.738;9.320;2023-06-19T08:54:57;28.20;76.80
23445;DHT22;11895;48.738;9.320;2023-06-19T08:57:35;28.10;77.00
23445;DHT22;11895;48.738;9.320;2023-06-19T09:00:07;28.00;77.10
23445;DHT22;11895;48.738;9.320;2023-06-19T09:02:41;27.90;77.30
23445;DHT22;11895;48.738;9.320;2023-06-19T09:05:12;27.80;77.70
23445;DHT22;11895;48.738;9.320;2023-06-19T09:07:54;27.90;77.30
23445;DHT22;11895;48.738;9.320;2023-06-19T09:10:24;27.90;77.00
23445;DHT22;11895;48.738;9.320;2023-06-19T09:12:59;27.90;77.20
23445;DHT22;11895;48.738;9.320;2023-06-19T09:15:32;28.00;77.10
23445;DHT22;11895;48.738;9.320;2023-06-19T09:18:08;28.00;76.80
23445;DHT22;11895;48.738;9.320;2023-06-19T09:20:40;28.20;76.70
23445;DHT22;11895;48.738;9.320;2023-06-19T09:23:11;28.50;76.30
23445;DHT22;11895;48.738;9.320;2023-06-19T09:25:51;28.60;75.20
23445;DHT22;11895;48.738;9.320;2023-06-19T09:28:25;28.70;73.80
23445;DHT22;11895;48.738;9.320;2023-06-19T09:30:59;28.80;74.30
23445;DHT22;11895;48.738;9.320;2023-06-19T09:33:30;29.00;74.00
23445;DHT22;11895;48.738;9.320;2023-06-19T09:36:02;29.00;73.50
23445;DHT22;11895;48.738;9.320;2023-06-19T09:38:35;29.20;73.40
23445;DHT22;11895;48.738;9.320;2023-06-19T09:41:30;29.40;72.60
23445;DHT22;11895;48.738;9.320;2023-06-19T09:43:58;29.40;72.40
23445;DHT22;11895;48.738;9.320;2023-06-19T09:46:30;29.50;72.00
23445;DHT22;11895;48.738;9.320;2023-06-19T09:49:04;29.60;71.70
23445;DHT22;11895;48.738;9.320;2023-06-19T09:51:37;29.70;72.10
23445;DHT22;11895;48.738;9.320;2023-06-19T09:54:09;29.90;71.40
23445;DHT22;11895;48.738;9.320;2023-06-19T09:56:38;30.00;70.80
23445;DHT22;11895;48.738;9.320;2023-06-19T09:59:06;29.80;71.40
23445;DHT22;11895;48.738;9.320;2023-06-19T10:01:36;29.90;71.30
23445;DHT22;11895;48.738;9.320;2023-06-19T10:04:08;30.10;71.10
23445;DHT22;11895;48.738;9.320;2023-06-19T10:06:48;30.30;70.90
23445;DHT22;11895;48.738;9.320;2023-06-19T10:09:16;30.40;69.70
23445;DHT22;11895;48.738;9.320;2023-06-19T10:11:50;30.30;69.20
23445;DHT22;11895;48.738;9.320;2023-06-19T10:14:22;30.30;69.20
23445;DHT22;11895;48.738;9.320;2023-06-19T10:16:51;30.40;69.40
23445;DHT22;11895;48.738;9.320;2023-06-19T10:19:21;30.50;68.50
23445;DHT22;11895;48.738;9.320;2023-06-19T10:21:52;30.60;68.40
23445;DHT22;11895;48.738;9.320;2023-06-19T10:24:23;30.60;68.60
23445;DHT22;11895;48.738;9.320;2023-06-19T10:26:59;30.80;67.70
23445;DHT22;11895;48.738;9.320;2023-06-19T10:29:39;30.90;68.30
23445;DHT22;11895;48.738;9.320;2023-06-19T10:32:19;30.90;68.30
23445;DHT22;11895;48.738;9.320;2023-06-19T10:34:47;31.00;68.20
23445;DHT22;11895;48.738;9.320;2023-06-19T10:37:18;31.20;67.70
23445;DHT22;11895;48.738;9.320;2023-06-19T10:39:59;31.10;67.90
23445;DHT22;11895;48.738;9.320;2023-06-19T10:42:28;31.10;68.10
23445;DHT22;11895;48.738;9.320;2023-06-19T10:45:06;31.20;67.80
23445;DHT22;11895;48.738;9.320;2023-06-19T10:47:38;31.40;68.00
23445;DHT22;11895;48.738;9.320;2023-06-19T10:50:12;31.70;67.60
23445;DHT22;11895;48.738;9.320;2023-06-19T10:52:45;32.00;66.80
23445;DHT22;11895;48.738;9.320;2023-06-19T10:55:15;32.20;66.30
23445;DHT22;11895;48.738;9.320;2023-06-19T10:57:45;32.40;66.30
23445;DHT22;11895;48.738;9.320;2023-06-19T11:00:28;32.50;66.60
23445;DHT22;11895;48.738;9.320;2023-06-19T11:02:58;32.60;66.30
23445;DHT22;11895;48.738;9.320;2023-06-19T11:05:27;32.90;65.90
23445;DHT22;11895;48.738;9.320;2023-06-19T11:07:57;33.20;65.50
23445;DHT22;11895;48.738;9.320;2023-06-19T11:10:28;33.70;64.60
23445;DHT22;11895;48.738;9.320;2023-06-19T11:12:57;34.10;63.80
23445;DHT22;11895;48.738;9.320;2023-06-19T11:15:32;34.10;63.40
23445;DHT22;11895;48.738;9.320;2023-06-19T11:18:02;34.10;63.30
23445;DHT22;11895;48.738;9.320;2023-06-19T11:20:30;34.20;63.50
23445;DHT22;11895;48.738;9.320;2023-06-19T11:22:59;34.30;63.10
23445;DHT22;11895;48.738;9.320;2023-06-19T11:25:38;34.30;62.60
23445;DHT22;11895;48.738;9.320;2023-06-19T11:28:17;34.30;62.90
23445;DHT22;11895;48.738;9.320;2023-06-19T11:31:01;34.30;62.70
23445;DHT22;11895;48.738;9.320;2023-06-19T11:33:30;34.10;62.70
23445;DHT22;11895;48.738;9.320;2023-06-19T11:36:00;33.80;63.20
23445;DHT22;11895;48.738;9.320;2023-06-19T11:38:30;33.70;63.50
23445;DHT22;11895;48.738;9.320;2023-06-19T11:40:58;33.70;63.40
23445;DHT22;11895;48.738;9.320;2023-06-19T11:43:31;33.80;63.70
23445;DHT22;11895;48.738;9.320;2023-06-19T11:46:06;34.00;63.50
23445;DHT22;11895;48.738;9.320;2023-06-19T11:48:38;34.20;63.70
23445;DHT22;11895;48.738;9.320;2023-06-19T11:51:07;34.50;62.90
23445;DHT22;11895;48.738;9.320;2023-06-19T11:53:35;34.40;61.80
23445;DHT22;11895;48.738;9.320;2023-06-19T11:56:04;34.30;62.90
23445;DHT22;11895;48.738;9.320;2023-06-19T11:58:31;34.70;62.80
23445;DHT22;11895;48.738;9.320;2023-06-19T12:00:58;35.50;62.20
23445;DHT22;11895;48.738;9.320;2023-06-19T12:03:26;36.50;60.80
23445;DHT22;11895;48.738;9.320;2023-06-19T12:05:54;37.50;59.40
23445;DHT22;11895;48.738;9.320;2023-06-19T12:08:21;38.20;58.10
23445;DHT22;11895;48.738;9.320;2023-06-19T12:10:49;39.00;56.70
23445;DHT22;11895;48.738;9.320;2023-06-19T12:13:16;39.40;56.20
23445;DHT22;11895;48.738;9.320;2023-06-19T12:15:44;39.80;55.20
23445;DHT22;11895;48.738;9.320;2023-06-19T12:18:12;40.10;54.80
23445;DHT22;11895;48.738;9.320;2023-06-19T12:20:41;40.20;54.70
23445;DHT22;11895;48.738;9.320;2023-06-19T12:23:08;40.50;54.20
23445;DHT22;11895;48.738;9.320;2023-06-19T12:25:35;41.00;53.40
23445;DHT22;11895;48.738;9.320;2023-06-19T12:28:03;41.70;52.60
23445;DHT22;11895;48.738;9.320;2023-06-19T12:30:32;42.00;51.80
23445;DHT22;11895;48.738;9.320;2023-06-19T12:32:59;42.10;52.00
23445;DHT22;11895;48.738;9.320;2023-06-19T12:35:27;41.90;51.80
23445;DHT22;11895;48.738;9.320;2023-06-19T12:37:55;41.90;51.40
23445;DHT22;11895;48.738;9.320;2023-06-19T12:40:23;41.80;51.40
23445;DHT22;11895;48.738;9.320;2023-06-19T12:42:51;41.90;51.40
23445;DHT22;11895;48.738;9.320;2023-06-19T12:45:19;42.20;51.40
23445;DHT22;11895;48.738;9.320;2023-06-19T12:47:47;42.60;50.90
23445;DHT22;11895;48.738;9.320;2023-06-19T12:50:15;43.30;50.10
23445;DHT22;11895;48.738;9.320;2023-06-19T12:52:43;44.10;48.70
23445;DHT22;11895;48.738;9.320;2023-06-19T12:55:11;44.50;48.10
23445;DHT22;11895;48.738;9.320;2023-06-19T13:00:11;43.30;48.20
23445;DHT22;11895;48.738;9.320;2023-06-19T13:02:40;43.40;49.10
23445;DHT22;11895;48.738;9.320;2023-06-19T13:05:10;44.40;48.20
23445;DHT22;11895;48.738;9.320;2023-06-19T13:07:37;45.60;47.10
23445;DHT22;11895;48.738;9.320;2023-06-19T13:10:05;46.80;45.80
23445;DHT22;11895;48.738;9.320;2023-06-19T13:12:33;47.80;44.60
23445;DHT22;11895;48.738;9.320;2023-06-19T13:15:00;48.10;44.50
23445;DHT22;11895;48.738;9.320;2023-06-19T13:17:29;48.00;43.60
23445;DHT22;11895;48.738;9.320;2023-06-19T13:19:56;47.90;43.50
23445;DHT22;11895;48.738;9.320;2023-06-19T13:22:24;48.30;43.50
23445;DHT22;11895;48.738;9.320;2023-06-19T13:24:52;49.20;42.80
23445;DHT22;11895;48.738;9.320;2023-06-19T13:27:19;49.30;42.00
23445;DHT22;11895;48.738;9.320;2023-06-19T13:29:46;47.80;42.80
23445;DHT22;11895;48.738;9.320;2023-06-19T13:32:13;46.20;43.60
23445;DHT22;11895;48.738;9.320;2023-06-19T13:34:41;44.50;45.30
23445;DHT22;11895;48.738;9.320;2023-06-19T13:37:08;43.40;46.70
23445;DHT22;11895;48.738;9.320;2023-06-19T13:39:40;42.50;47.70
23445;DHT22;11895;48.738;9.320;2023-06-19T13:42:12;42.20;48.70
23445;DHT22;11895;48.738;9.320;2023-06-19T13:44:40;43.30;47.90
23445;DHT22;11895;48.738;9.320;2023-06-19T13:47:07;44.60;46.40
23445;DHT22;11895;48.738;9.320;2023-06-19T13:49:35;45.40;45.50
23445;DHT22;11895;48.738;9.320;2023-06-19T13:52:02;46.70;43.80
23445;DHT22;11895;48.738;9.320;2023-06-19T13:54:29;46.70;44.30
23445;DHT22;11895;48.738;9.320;2023-06-19T13:56:57;46.80;43.80
23445;DHT22;11895;48.738;9.320;2023-06-19T13:59:25;46.40;44.20
23445;DHT22;11895;48.738;9.320;2023-06-19T14:01:52;45.50;44.10
23445;DHT22;11895;48.738;9.320;2023-06-19T14:04:20;45.00;45.20
23445;DHT22;11895;48.738;9.320;2023-06-19T14:06:47;44.40;45.70
23445;DHT22;11895;48.738;9.320;2023-06-19T14:09:15;43.20;46.60
23445;DHT22;11895;48.738;9.320;2023-06-19T14:11:43;42.40;47.60
23445;DHT22;11895;48.738;9.320;2023-06-19T14:14:11;41.70;48.70
23445;DHT22;11895;48.738;9.320;2023-06-19T14:16:39;42.00;48.50
23445;DHT22;11895;48.738;9.320;2023-06-19T14:19:06;43.20;47.30
23445;DHT22;11895;48.738;9.320;2023-06-19T14:21:34;44.40;46.10
23445;DHT22;11895;48.738;9.320;2023-06-19T14:24:02;44.70;45.50
23445;DHT22;11895;48.738;9.320;2023-06-19T14:26:29;44.70;45.30
23445;DHT22;11895;48.738;9.320;2023-06-19T14:28:57;44.70;45.00
23445;DHT22;11895;48.738;9.320;2023-06-19T14:31:25;44.60;45.00
23445;DHT22;11895;48.738;9.320;2023-06-19T14:33:54;44.50;44.80
23445;DHT22;11895;48.738;9.320;2023-06-19T14:36:21;44.50;44.70
23445;DHT22;11895;48.738;9.320;2023-06-19T14:38:49;44.90;45.20
23445;DHT22;11895;48.738;9.320;2023-06-19T14:41:17;45.50;44.30
23445;DHT22;11895;48.738;9.320;2023-06-19T14:43:45;46.30;43.50
23445;DHT22;11895;48.738;9.320;2023-06-19T14:46:13;46.50;43.00
23445;DHT22;11895;48.738;9.320;2023-06-19T14:48:59;46.40;42.50
23445;DHT22;11895;48.738;9.320;2023-06-19T14:51:28;46.50;42.40
23445;DHT22;11895;48.738;9.320;2023-06-19T14:53:56;46.70;42.60
23445;DHT22;11895;48.738;9.320;2023-06-19T14:56:23;46.70;42.60
23445;DHT22;11895;48.738;9.320;2023-06-19T14:58:51;46.30;42.80
23445;DHT22;11895;48.738;9.320;2023-06-19T15:03:46;45.40;42.40
23445;DHT22;11895;48.738;9.320;2023-06-19T15:06:13;45.40;43.10
23445;DHT22;11895;48.738;9.320;2023-06-19T15:08:40;45.60;43.70
23445;DHT22;11895;48.738;9.320;2023-06-19T15:11:08;45.60;44.10
23445;DHT22;11895;48.738;9.320;2023-06-19T15:13:35;45.80;43.20
23445;DHT22;11895;48.738;9.320;2023-06-19T15:16:05;45.60;43.30
23445;DHT22;11895;48.738;9.320;2023-06-19T15:18:35;45.20;43.40
23445;DHT22;11895;48.738;9.320;2023-06-19T15:21:02;44.30;44.40
23445;DHT22;11895;48.738;9.320;2023-06-19T15:23:33;43.20;45.80
23445;DHT22;11895;48.738;9.320;2023-06-19T15:26:00;42.60;46.90
23445;DHT22;11895;48.738;9.320;2023-06-19T15:28:28;42.20;47.20
23445;DHT22;11895;48.738;9.320;2023-06-19T15:30:55;42.40;47.30
23445;DHT22;11895;48.738;9.320;2023-06-19T15:33:22;42.80;46.70
23445;DHT22;11895;48.738;9.320;2023-06-19T15:35:51;43.50;46.10
23445;DHT22;11895;48.738;9.320;2023-06-19T15:38:18;43.50;45.80
23445;DHT22;11895;48.738;9.320;2023-06-19T15:40:46;43.80;45.80
23445;DHT22;11895;48.738;9.320;2023-06-19T15:43:14;44.50;45.30
23445;DHT22;11895;48.738;9.320;2023-06-19T15:45:41;45.00;44.50
23445;DHT22;11895;48.738;9.320;2023-06-19T15:48:08;44.70;44.70
23445;DHT22;11895;48.738;9.320;2023-06-19T15:50:36;43.70;44.90
23445;DHT22;11895;48.738;9.320;2023-06-19T15:53:04;42.90;58.60
23445;DHT22;11895;48.738;9.320;2023-06-19T15:55:32;41.70;47.00
23445;DHT22;11895;48.738;9.320;2023-06-19T15:57:59;40.80;47.70